Time;durP1;ratioP1;P1;durP2;ratioP2;P2;SDS_P1;SDS_P2;PMS_P1;PMS_P2;Temp;Humidity;BMP_temperature;BMP_pressure;BME280_temperature;BME280_humidity;BME280_pressure;Samples;Min_cycle;Max_cycle;Signal;HPM_P1;HPM_P2
2022/06/10 00:02:20;;;;;;;4.95;4.18;;;;;;;13.47;100.00;99943.44;5014047;28;20185;-77
2022/06/10 00:04:46;;;;;;;8.63;4.50;;;;;;;13.50;100.00;99941.41;5014203;28;20228;-76
2022/06/10 00:07:13;;;;;;;7.72;5.07;;;;;;;13.55;100.00;99944.69;5014088;28;20217;-76
2022/06/10 00:09:39;;;;;;;6.90;3.78;;;;;;;13.48;100.00;99947.88;5013360;28;20291;-76
2022/06/10 00:12:07;;;;;;;7.13;3.90;;;;;;;13.41;100.00;99941.13;5013718;28;20280;-78
2022/06/10 00:14:33;;;;;;;5.82;4.78;;;;;;;13.26;100.00;99938.41;5013614;28;20275;-77
2022/06/10 00:17:00;;;;;;;9.10;4.55;;;;;;;13.12;100.00;99943.84;5012583;28;20342;-76
2022/06/10 00:19:28;;;;;;;8.57;4.68;;;;;;;13.08;100.00;99943.13;5013912;28;20280;-77
2022/06/10 00:21:55;;;;;;;8.95;5.90;;;;;;;13.07;100.00;99954.94;5013323;28;20653;-77
2022/06/10 00:24:21;;;;;;;7.07;5.03;;;;;;;13.12;100.00;99958.22;5013488;28;20228;-77
2022/06/10 00:26:48;;;;;;;6.03;4.60;;;;;;;13.10;100.00;99956.56;5013756;28;20689;-77
2022/06/10 00:29:15;;;;;;;7.18;4.75;;;;;;;13.01;100.00;99951.75;5029947;28;20237;-77
2022/06/10 00:31:41;;;;;;;8.00;4.70;;;;;;;12.98;100.00;99960.03;5033373;28;20233;-78
2022/06/10 00:34:08;;;;;;;6.45;4.50;;;;;;;12.96;100.00;99956.53;5015626;28;20187;-77
2022/06/10 00:36:36;;;;;;;9.45;5.00;;;;;;;13.12;100.00;99960.91;5013425;28;20275;-77
2022/06/10 00:39:04;;;;;;;4.88;4.30;;;;;;;13.12;100.00;99952.81;5012980;28;20648;-77
2022/06/10 00:41:30;;;;;;;7.82;5.00;;;;;;;13.10;100.00;99954.72;5013073;28;20296;-77
2022/06/10 00:43:57;;;;;;;5.68;4.72;;;;;;;13.09;100.00;99954.81;5013411;28;20263;-77
2022/06/10 00:46:31;;;;;;;5.05;4.55;;;;;;;12.93;100.00;99952.19;5013360;28;20622;-77
2022/06/10 00:49:10;;;;;;;7.82;4.55;;;;;;;12.73;100.00;99951.63;5012271;28;20600;-77
2022/06/10 00:51:41;;;;;;;5.72;5.03;;;;;;;12.64;100.00;99951.28;5013202;28;20187;-77
2022/06/10 00:54:16;;;;;;;7.53;4.80;;;;;;;12.70;100.00;99956.34;5012993;28;20192;-76
2022/06/10 00:56:46;;;;;;;7.50;4.90;;;;;;;12.62;100.00;99954.13;5013245;28;20278;-77
2022/06/10 00:59:22;;;;;;;12.32;5.60;;;;;;;12.68;100.00;99953.72;5012763;28;20192;-77
2022/06/10 01:01:53;;;;;;;15.60;8.68;;;;;;;12.71;100.00;99956.25;5012999;28;20532;-77
2022/06/10 01:04:20;;;;;;;14.10;10.38;;;;;;;12.63;100.00;99946.88;5013069;28;20297;-76
2022/06/10 01:06:48;;;;;;;10.95;7.72;;;;;;;12.50;100.00;99963.84;5012948;28;20278;-77
2022/06/10 01:09:15;;;;;;;15.45;10.07;;;;;;;12.54;100.00;99959.09;5012741;28;20270;-77
2022/06/10 01:11:59;;;;;;;11.43;7.15;;;;;;;12.45;100.00;99951.56;5012544;28;20265;-77
2022/06/10 01:14:41;;;;;;;9.45;6.13;;;;;;;12.48;100.00;99957.66;5012897;28;20266;-77
2022/06/10 01:17:20;;;;;;;13.50;7.90;;;;;;;12.47;100.00;99964.00;5012008;28;20217;-77
2022/06/10 01:20:02;;;;;;;8.07;5.45;;;;;;;12.45;100.00;99959.66;5012196;28;20278;-77
2022/06/10 01:23:07;;;;;;;6.45;5.00;;;;;;;12.49;100.00;99963.91;5012249;28;20187;-76
2022/06/10 01:25:55;;;;;;;7.47;5.05;;;;;;;12.41;100.00;99961.66;4999461;28;20312;-76
2022/06/10 01:28:42;;;;;;;5.95;4.65;;;;;;;12.48;100.00;99965.75;5012356;28;20233;-77
2022/06/10 01:31:17;;;;;;;5.50;5.00;;;;;;;12.52;100.00;99963.72;5012206;28;20277;-77
2022/06/10 01:34:00;;;;;;;6.40;4.28;;;;;;;12.55;100.00;99962.66;5012431;28;20198;-76
2022/06/10 01:36:40;;;;;;;7.38;4.80;;;;;;;12.43;100.00;99958.88;5012638;28;20188;-77
2022/06/10 01:39:13;;;;;;;7.35;5.45;;;;;;;12.42;100.00;99960.72;5011922;28;20644;-76
2022/06/10 01:41:50;;;;;;;6.43;4.63;;;;;;;12.40;100.00;99965.34;5012421;28;20210;-77
2022/06/10 01:44:28;;;;;;;6.50;5.47;;;;;;;12.42;100.00;99958.00;5012482;28;20544;-77
2022/06/10 01:47:04;;;;;;;6.22;5.00;;;;;;;12.36;100.00;99957.50;5011726;28;20190;-77
2022/06/10 01:49:37;;;;;;;6.10;5.18;;;;;;;12.29;100.00;99957.88;5012454;28;20686;-77
2022/06/10 01:52:11;;;;;;;13.98;6.10;;;;;;;12.29;100.00;99957.88;5012316;28;20610;-77
2022/06/10 01:54:45;;;;;;;5.82;4.90;;;;;;;12.25;100.00;99956.31;5012397;28;20560;-76
2022/06/10 01:57:19;;;;;;;7.57;5.53;;;;;;;12.22;100.00;99950.25;5011797;28;20191;-76
2022/06/10 01:59:52;;;;;;;7.22;5.70;;;;;;;12.14;100.00;99947.97;5011976;28;20273;-77
2022/06/10 02:02:26;;;;;;;10.25;5.18;;;;;;;12.17;100.00;99955.91;5012023;28;20286;-77
2022/06/10 02:05:00;;;;;;;9.20;6.18;;;;;;;12.00;100.00;99956.03;5012303;28;20687;-77
2022/06/10 02:07:33;;;;;;;7.22;6.53;;;;;;;12.02;100.00;99954.97;5011761;28;20274;-77
2022/06/10 02:10:06;;;;;;;7.70;4.68;;;;;;;12.05;100.00;99954.81;5012303;28;20275;-77
2022/06/10 02:12:40;;;;;;;7.85;5.80;;;;;;;12.09;100.00;99953.66;5014444;28;20193;-78
2022/06/10 02:15:12;;;;;;;8.43;5.20;;;;;;;12.03;100.00;99962.13;5016321;28;20677;-78
2022/06/10 02:17:47;;;;;;;8.55;5.25;;;;;;;12.05;100.00;99960.22;4996956;28;20192;-77
2022/06/10 02:20:20;;;;;;;7.25;4.82;;;;;;;11.93;100.00;99962.75;4996684;28;20279;-77
2022/06/10 02:22:48;;;;;;;7.57;4.95;;;;;;;11.98;100.00;99961.50;4996525;28;20268;-77
2022/06/10 02:25:19;;;;;;;7.90;5.22;;;;;;;11.87;100.00;99972.94;4996771;28;20302;-77
2022/06/10 02:27:49;;;;;;;5.95;4.68;;;;;;;11.82;100.00;99966.88;5015690;28;20699;-77
2022/06/10 02:30:23;;;;;;;8.20;4.65;;;;;;;11.87;100.00;99972.94;5015729;28;20602;-78
2022/06/10 02:32:51;;;;;;;6.05;5.00;;;;;;;11.85;100.00;99972.13;5015953;28;20625;-77
2022/06/10 02:35:19;;;;;;;8.30;5.35;;;;;;;11.75;100.00;99978.97;5015899;28;20189;-77
2022/06/10 02:37:50;;;;;;;9.15;5.22;;;;;;;11.72;100.00;99984.56;5015425;28;20624;-77
2022/06/10 02:40:27;;;;;;;5.63;4.80;;;;;;;11.55;100.00;99977.41;5015481;28;20207;-77
2022/06/10 02:43:12;;;;;;;9.60;5.20;;;;;;;11.78;100.00;99984.22;5015485;28;20212;-76
2022/06/10 02:45:49;;;;;;;5.20;4.70;;;;;;;11.77;100.00;99989.69;5015601;28;20215;-77
2022/06/10 02:48:23;;;;;;;7.72;5.18;;;;;;;11.68;100.00;99989.25;4996298;28;20689;-76
2022/06/10 02:50:50;;;;;;;8.90;6.03;;;;;;;11.61;100.00;99977.06;4996068;28;20186;-76
2022/06/10 02:53:17;;;;;;;5.93;4.85;;;;;;;11.69;100.00;99984.75;4995667;28;20180;-75
2022/06/10 02:55:43;;;;;;;7.35;4.88;;;;;;;11.67;100.00;99987.53;5000795;28;20282;-77
2022/06/10 03:01:13;;;;;;;9.98;5.10;;;;;;;11.54;100.00;100005.34;5015011;28;20212;-76
2022/06/10 03:03:54;;;;;;;8.18;5.28;;;;;;;11.60;100.00;99996.94;5015190;28;20197;-77
2022/06/10 03:06:30;;;;;;;6.45;5.20;;;;;;;11.69;100.00;100006.34;5014562;28;20237;-77
2022/06/10 03:09:03;;;;;;;6.35;4.60;;;;;;;11.71;100.00;100000.81;5015022;28;20277;-77
2022/06/10 03:11:35;;;;;;;6.97;4.75;;;;;;;11.81;100.00;100010.16;5014897;28;20285;-77
2022/06/10 03:14:11;;;;;;;5.28;4.72;;;;;;;11.83;100.00;100014.50;5015152;28;20205;-77
2022/06/10 03:17:02;;;;;;;5.60;5.00;;;;;;;11.74;100.00;100006.94;5014704;28;20278;-77
2022/06/10 03:19:42;;;;;;;8.30;5.07;;;;;;;11.60;100.00;100012.22;5015016;28;20278;-77
2022/06/10 03:22:17;;;;;;;5.38;4.60;;;;;;;11.66;100.00;100019.97;5014635;28;20237;-77
2022/06/10 03:24:54;;;;;;;9.60;5.03;;;;;;;11.68;100.00;100021.63;5014628;28;20191;-77
2022/06/10 03:27:31;;;;;;;9.30;7.63;;;;;;;11.62;100.00;100026.47;5014402;28;20282;-77
2022/06/10 03:30:06;;;;;;;6.53;5.20;;;;;;;11.59;100.00;100032.06;5014602;28;20234;-77
2022/06/10 03:32:37;;;;;;;7.55;5.43;;;;;;;11.43;100.00;100038.28;5014769;28;20186;-77
2022/06/10 03:35:11;;;;;;;6.10;5.30;;;;;;;11.61;100.00;100040.94;5014956;28;20681;-76
2022/06/10 03:37:40;;;;;;;5.90;5.05;;;;;;;11.43;100.00;100038.28;4995276;28;20694;-77
2022/06/10 03:40:14;;;;;;;6.85;5.18;;;;;;;11.37;100.00;100046.72;4995556;28;20203;-77
2022/06/10 03:42:48;;;;;;;7.82;5.40;;;;;;;11.37;100.00;100046.72;5014049;28;20278;-76
2022/06/10 03:45:16;;;;;;;6.85;5.43;;;;;;;11.29;100.00;100046.28;5014843;28;20669;-76
2022/06/10 03:47:43;;;;;;;6.50;5.18;;;;;;;11.25;100.00;100052.78;5014336;28;20281;-75
2022/06/10 03:50:15;;;;;;;5.88;4.65;;;;;;;11.29;100.00;100053.50;5013998;28;20197;-76
2022/06/10 03:52:44;;;;;;;5.35;4.60;;;;;;;11.29;100.00;100057.06;5014484;28;20286;-76
2022/06/10 03:55:16;;;;;;;9.35;5.13;;;;;;;11.24;100.00;100056.44;5013282;28;20198;-76
2022/06/10 03:57:43;;;;;;;5.45;4.95;;;;;;;11.27;100.00;100057.13;5014102;28;20229;-76
2022/06/10 04:00:14;;;;;;;6.38;5.68;;;;;;;11.37;100.00;100059.31;5014027;28;20205;-76
2022/06/10 04:02:41;;;;;;;6.68;5.80;;;;;;;11.36;100.00;100055.75;5013928;28;20277;-77
2022/06/10 04:05:10;;;;;;;7.15;5.50;;;;;;;11.25;100.00;100055.47;5013989;28;20293;-76
2022/06/10 04:07:39;;;;;;;6.68;4.90;;;;;;;11.26;100.00;100062.59;5013925;28;20199;-75
2022/06/10 04:10:09;;;;;;;6.80;5.47;;;;;;;11.42;100.00;100054.56;5014101;28;20645;-77
2022/06/10 04:12:36;;;;;;;12.55;4.97;;;;;;;11.40;100.00;100062.75;4994347;28;20224;-77
2022/06/10 04:15:03;;;;;;;11.07;6.35;;;;;;;11.52;100.00;100069.28;4994801;28;20672;-77
2022/06/10 04:17:30;;;;;;;5.80;5.25;;;;;;;11.57;100.00;100060.94;4994779;28;20218;-77
2022/06/10 04:19:57;;;;;;;6.72;5.85;;;;;;;11.55;100.00;100061.00;4994322;28;20184;-77
2022/06/10 04:22:23;;;;;;;6.45;5.47;;;;;;;11.51;100.00;100069.34;5011906;28;20206;-77
2022/06/10 04:24:51;;;;;;;5.75;5.13;;;;;;;11.55;100.00;100063.72;5013818;28;20201;-75
2022/06/10 04:27:18;;;;;;;8.55;4.75;;;;;;;11.76;100.00;100066.19;5013437;28;20189;-77
2022/06/10 04:29:45;;;;;;;6.60;4.90;;;;;;;11.76;100.00;100064.38;5013469;28;20711;-78
2022/06/10 04:32:12;;;;;;;6.00;5.45;;;;;;;11.81;100.00;100059.59;5013440;28;20191;-75
2022/06/10 04:34:39;;;;;;;8.82;6.50;;;;;;;11.94;100.00;100064.31;5007145;28;20234;-75
2022/06/10 04:37:06;;;;;;;9.90;6.50;;;;;;;12.16;100.00;100074.78;4993214;28;20286;-76
2022/06/10 04:39:33;;;;;;;11.10;6.43;;;;;;;12.28;100.00;100068.69;4993540;28;20499;-77
2022/06/10 04:42:01;;;;;;;12.52;6.68;;;;;;;12.40;100.00;100072.50;4993495;28;20211;-77
2022/06/10 04:44:27;;;;;;;7.25;5.63;;;;;;;12.47;100.00;100069.34;5011739;28;20286;-76
2022/06/10 04:46:54;;;;;;;8.80;6.80;;;;;;;12.53;100.00;100070.81;5010330;28;20207;-76
2022/06/10 04:49:20;;;;;;;8.75;6.95;;;;;;;12.55;100.00;100065.31;5012642;28;20234;-77
2022/06/10 04:51:47;;;;;;;12.15;6.50;;;;;;;12.66;100.00;100068.25;5012676;28;20212;-77
2022/06/10 04:54:14;;;;;;;9.50;6.95;;;;;;;12.79;100.00;100052.19;5012335;28;20283;-77
2022/06/10 04:56:40;;;;;;;10.75;6.22;;;;;;;13.00;100.00;100056.31;5012288;28;20279;-76
2022/06/10 04:59:09;;;;;;;9.07;6.93;;;;;;;13.09;100.00;100054.84;5012198;28;20209;-76
2022/06/10 05:01:36;;;;;;;8.23;6.25;;;;;;;13.08;100.00;100051.28;5012419;28;20231;-77
2022/06/10 05:04:03;;;;;;;8.15;6.75;;;;;;;13.23;100.00;100051.28;5012651;28;20190;-77
2022/06/10 05:06:29;;;;;;;13.77;7.40;;;;;;;13.33;100.00;100055.22;5012918;28;20282;-77
2022/06/10 05:08:56;;;;;;;7.55;6.10;;;;;;;13.44;100.00;100050.00;5012957;28;20267;-77
2022/06/10 05:11:23;;;;;;;7.63;5.93;;;;;;;13.45;100.00;100050.84;5012764;28;20191;-77
2022/06/10 05:13:50;;;;;;;7.72;6.75;;;;;;;13.56;100.00;100049.22;5012446;28;20647;-76
2022/06/10 05:16:18;;;;;;;7.43;6.20;;;;;;;13.73;100.00;100048.16;5012818;28;20279;-77
2022/06/10 05:18:44;;;;;;;6.75;5.97;;;;;;;13.70;100.00;100053.78;5012821;28;20517;-76
2022/06/10 05:21:11;;;;;;;6.43;5.57;;;;;;;13.70;100.00;100051.06;5012130;28;20293;-78
2022/06/10 05:23:38;;;;;;;11.20;5.95;;;;;;;14.00;100.00;100054.56;5012371;28;20619;-76
2022/06/10 05:26:05;;;;;;;7.72;6.03;;;;;;;14.11;100.00;100061.03;5012209;28;20218;-77
2022/06/10 05:28:32;;;;;;;8.13;6.10;;;;;;;14.20;100.00;100054.16;5012136;28;20200;-78
2022/06/10 05:30:58;;;;;;;11.75;5.90;;;;;;;14.36;100.00;100063.00;5011376;28;20268;-77
2022/06/10 05:34:44;;;;;;;7.57;5.82;;;;;;;14.49;100.00;100064.88;5012379;28;20731;-77
2022/06/10 05:36:12;;;;;;;9.63;7.03;;;;;;;14.83;100.00;100068.06;5011818;28;20190;-78
2022/06/10 05:38:39;;;;;;;11.83;7.13;;;;;;;14.89;100.00;100068.50;5012025;28;20201;-77
2022/06/10 05:43:46;;;;;;;8.75;6.00;;;;;;;15.13;100.00;100070.50;5001089;28;20628;-77
2022/06/10 05:46:13;;;;;;;8.25;6.60;;;;;;;15.45;100.00;100064.66;5010861;28;20229;-77
2022/06/10 05:48:42;;;;;;;9.30;5.25;;;;;;;15.69;100.00;100062.88;5012273;28;20325;-77
2022/06/10 05:51:09;;;;;;;11.32;5.55;;;;;;;15.56;100.00;100071.06;5012264;28;20206;-77
2022/06/10 05:53:35;;;;;;;6.78;5.00;;;;;;;15.53;100.00;100073.09;5012057;28;20199;-76
2022/06/10 05:56:02;;;;;;;5.78;4.60;;;;;;;15.58;100.00;100071.81;5011972;28;20179;-77
2022/06/10 05:58:30;;;;;;;8.18;5.57;;;;;;;15.70;100.00;100072.78;4995989;28;20198;-76
2022/06/10 06:00:56;;;;;;;9.27;5.70;;;;;;;15.78;100.00;100074.97;5011365;28;20198;-77
2022/06/10 06:03:24;;;;;;;9.27;4.95;;;;;;;15.86;100.00;100075.28;5011855;28;20297;-75
2022/06/10 06:05:52;;;;;;;10.48;7.57;;;;;;;15.95;100.00;100074.63;5011168;28;20207;-75
2022/06/10 06:08:18;;;;;;;9.43;4.90;;;;;;;16.01;100.00;100073.31;5011049;28;20198;-75
2022/06/10 06:10:45;;;;;;;7.70;5.50;;;;;;;16.08;100.00;100071.00;5011395;28;20197;-77
2022/06/10 06:13:11;;;;;;;10.80;6.00;;;;;;;16.16;100.00;100077.59;5011539;28;20216;-77
2022/06/10 06:15:38;;;;;;;9.75;5.70;;;;;;;16.35;100.00;100068.97;5010451;28;20209;-77
2022/06/10 06:18:05;;;;;;;6.97;5.47;;;;;;;16.66;100.00;100080.22;5011227;28;20189;-76
2022/06/10 06:20:32;;;;;;;6.15;4.97;;;;;;;16.77;100.00;100083.00;5011200;28;20194;-76
2022/06/10 06:23:00;;;;;;;8.20;5.40;;;;;;;16.85;100.00;100079.75;5011200;28;20187;-77
2022/06/10 06:25:29;;;;;;;7.25;5.00;;;;;;;16.93;100.00;100084.59;5011312;28;20209;-76
2022/06/10 06:27:56;;;;;;;6.57;5.15;;;;;;;17.06;100.00;100088.09;5011073;28;20203;-76
2022/06/10 06:30:26;;;;;;;8.23;4.43;;;;;;;17.16;99.30;100085.50;5011205;28;20700;-76
2022/06/10 06:32:53;;;;;;;7.13;5.88;;;;;;;17.21;98.85;100089.63;5011286;28;20635;-76
2022/06/10 06:35:20;;;;;;;7.72;4.65;;;;;;;17.29;97.97;100091.75;5011249;28;20290;-76
2022/06/10 06:37:46;;;;;;;5.57;4.57;;;;;;;17.32;98.00;100093.34;5011113;28;20242;-76
2022/06/10 06:40:14;;;;;;;10.65;4.93;;;;;;;17.15;99.93;100092.81;5010242;28;20190;-77
2022/06/10 06:42:41;;;;;;;11.25;5.72;;;;;;;17.40;99.31;100091.75;5011151;28;20305;-76
2022/06/10 06:45:09;;;;;;;7.70;5.18;;;;;;;17.60;97.17;100084.75;5010833;28;20274;-78
2022/06/10 06:47:36;;;;;;;8.10;6.60;;;;;;;17.68;97.55;100085.00;5011015;28;20223;-77
2022/06/10 06:50:03;;;;;;;5.95;4.63;;;;;;;17.61;97.89;100081.00;5010600;28;20274;-77
2022/06/10 06:52:30;;;;;;;8.50;4.80;;;;;;;17.94;95.52;100082.06;5022129;28;20190;-77
2022/06/10 06:54:57;;;;;;;6.72;4.28;;;;;;;18.11;94.08;100076.09;5011731;28;20292;-76
2022/06/10 06:57:26;;;;;;;5.13;4.03;;;;;;;18.08;93.74;100081.78;5011746;28;20186;-76
2022/06/10 06:59:53;;;;;;;6.85;5.22;;;;;;;18.05;95.29;100081.19;5014477;28;20187;-77
2022/06/10 07:02:19;;;;;;;7.90;4.65;;;;;;;18.16;95.35;100085.75;5014578;28;20630;-76
2022/06/10 07:04:46;;;;;;;7.55;4.57;;;;;;;18.15;95.64;100084.03;5014690;28;20275;-78
2022/06/10 07:07:13;;;;;;;6.60;4.57;;;;;;;18.44;93.92;100093.38;5014340;28;20220;-78
2022/06/10 07:09:40;;;;;;;6.55;4.30;;;;;;;18.79;90.11;100091.44;5014122;28;20223;-77
2022/06/10 07:12:07;;;;;;;8.65;3.63;;;;;;;18.96;88.13;100093.59;5014635;28;20291;-76
2022/06/10 07:14:35;;;;;;;5.53;4.03;;;;;;;19.00;87.67;100088.78;5013968;28;20593;-76
2022/06/10 07:17:02;;;;;;;6.60;4.55;;;;;;;19.13;87.64;100092.16;5013488;28;20285;-75
2022/06/10 07:19:29;;;;;;;4.85;3.80;;;;;;;19.07;87.36;100090.81;5014218;28;20575;-76
2022/06/10 07:21:55;;;;;;;5.45;4.20;;;;;;;18.76;89.50;100092.53;5014132;28;20233;-77
2022/06/10 07:24:22;;;;;;;7.50;4.35;;;;;;;18.93;89.55;100092.00;5013204;28;20244;-76
2022/06/10 07:26:49;;;;;;;7.75;5.20;;;;;;;19.32;86.97;100092.28;5013425;28;20625;-78
2022/06/10 07:29:16;;;;;;;9.63;5.65;;;;;;;19.55;85.03;100089.41;5013022;28;20316;-78
2022/06/10 07:31:44;;;;;;;9.55;4.43;;;;;;;19.42;84.83;100096.97;5013087;28;20186;-77
2022/06/10 07:34:11;;;;;;;5.70;4.38;;;;;;;19.80;83.17;100090.88;5010102;28;20562;-76
2022/06/10 07:36:38;;;;;;;6.70;4.25;;;;;;;20.06;80.73;100093.13;5011145;28;20551;-77
2022/06/10 07:39:05;;;;;;;8.63;4.18;;;;;;;20.12;79.39;100098.91;5013784;28;20197;-76
2022/06/10 07:44:20;;;;;;;7.35;4.75;;;;;;;20.31;78.52;100086.34;5013387;28;20189;-78
2022/06/10 07:46:48;;;;;;;5.95;4.20;;;;;;;20.51;79.00;100092.69;5013182;28;20206;-75
2022/06/10 07:49:15;;;;;;;7.13;4.00;;;;;;;20.57;77.76;100083.97;5009729;28;20191;-77
2022/06/10 07:51:41;;;;;;;8.32;3.63;;;;;;;20.33;75.10;100078.84;5013436;28;20849;-76
2022/06/10 07:54:08;;;;;;;8.10;3.97;;;;;;;20.42;76.19;100080.75;5012782;28;20287;-77
2022/06/10 07:56:35;;;;;;;20.87;3.70;;;;;;;20.48;76.59;100079.31;5012701;28;20195;-77
2022/06/10 07:59:02;;;;;;;6.87;3.60;;;;;;;20.60;75.99;100081.81;5013145;28;20438;-76
2022/06/10 08:01:29;;;;;;;12.70;4.20;;;;;;;20.89;75.17;100071.88;5012774;28;20441;-76
2022/06/10 08:03:58;;;;;;;7.60;4.20;;;;;;;21.12;73.64;100083.41;5013253;28;20454;-76
2022/06/10 08:06:26;;;;;;;10.63;6.50;;;;;;;21.33;72.10;100077.78;5012849;28;20479;-76
2022/06/10 08:08:53;;;;;;;6.40;3.70;;;;;;;21.42;70.60;100083.25;5012054;28;20453;-76
2022/06/10 08:11:20;;;;;;;5.20;3.47;;;;;;;21.22;71.57;100082.38;5013415;28;20785;-77
2022/06/10 08:13:47;;;;;;;5.37;2.73;;;;;;;21.19;71.35;100081.84;5012846;28;20461;-78
2022/06/10 08:16:15;;;;;;;8.70;3.97;;;;;;;21.48;67.46;100081.78;5012596;28;20440;-76
2022/06/10 08:18:43;;;;;;;6.67;3.97;;;;;;;21.40;68.42;100079.78;5012561;28;20542;-76
2022/06/10 08:23:56;;;;;;;7.13;3.30;;;;;;;21.73;65.12;100077.56;4993224;28;20438;-76
2022/06/10 08:26:25;;;;;;;8.90;4.27;;;;;;;21.82;64.74;100082.13;5011148;28;20450;-77
2022/06/10 08:28:52;;;;;;;7.80;3.20;;;;;;;21.98;63.22;100076.03;5012906;28;20599;-77
2022/06/10 08:31:19;;;;;;;7.30;3.87;;;;;;;21.98;63.68;100080.59;5012805;28;20472;-76
2022/06/10 08:33:46;;;;;;;9.67;3.80;;;;;;;22.07;62.93;100082.47;5013045;28;20457;-77
2022/06/10 08:36:14;;;;;;;5.10;3.17;;;;;;;22.11;63.28;100078.38;5011938;28;20520;-76
2022/06/10 08:38:42;;;;;;;7.33;2.90;;;;;;;22.13;63.06;100081.84;5011979;28;20529;-76
2022/06/10 08:41:21;;;;;;;5.93;3.07;;;;;;;22.34;62.02;100084.38;5012550;28;20837;-77
2022/06/10 08:43:56;;;;;;;11.87;4.80;;;;;;;22.42;61.60;100080.88;5011900;28;20438;-76
2022/06/10 08:46:41;;;;;;;7.90;3.87;;;;;;;22.37;62.34;100084.06;5012305;28;20437;-76
2022/06/10 08:49:28;;;;;;;9.40;3.40;;;;;;;22.66;61.42;100088.50;5012349;28;20441;-76
2022/06/10 08:52:05;;;;;;;12.00;3.43;;;;;;;22.84;60.48;100077.53;5013054;28;20520;-75
2022/06/10 08:54:39;;;;;;;6.50;2.70;;;;;;;22.92;60.31;100085.84;5013019;28;20432;-76
2022/06/10 08:57:15;;;;;;;6.10;3.20;;;;;;;22.75;60.11;100084.84;5011960;28;20524;-76
2022/06/10 08:59:46;;;;;;;8.37;3.43;;;;;;;22.88;60.19;100090.81;5012460;28;20513;-76
2022/06/10 09:02:21;;;;;;;7.53;2.90;;;;;;;22.20;62.17;100079.34;5012548;28;20896;-76
2022/06/10 09:04:53;;;;;;;6.97;2.90;;;;;;;22.59;60.22;100092.88;5012524;28;20460;-76
2022/06/10 09:07:28;;;;;;;8.63;2.93;;;;;;;22.18;61.33;100075.91;5011891;28;20473;-78
2022/06/10 09:09:57;;;;;;;6.97;3.03;;;;;;;21.40;63.73;100085.28;5008720;28;20541;-77
2022/06/10 09:12:39;;;;;;;4.17;2.57;;;;;;;21.01;62.69;100079.81;5012355;28;21196;-77
2022/06/10 09:15:08;;;;;;;6.07;2.40;;;;;;;21.09;62.05;100073.59;5011816;28;20425;-76
2022/06/10 09:17:40;;;;;;;6.33;3.00;;;;;;;21.30;61.76;100078.94;5011852;28;20422;-76
2022/06/10 09:20:12;;;;;;;4.97;2.87;;;;;;;21.55;62.14;100071.09;5011996;28;20553;-78
2022/06/10 09:22:49;;;;;;;7.40;3.07;;;;;;;21.99;59.54;100079.63;5009329;28;20516;-77
2022/06/10 09:25:23;;;;;;;10.63;2.97;;;;;;;22.33;57.80;100076.31;5011940;28;20417;-75
2022/06/10 09:27:55;;;;;;;19.87;3.50;;;;;;;22.98;54.74;100078.88;5008324;28;20480;-76
2022/06/10 09:30:33;;;;;;;8.80;2.93;;;;;;;23.17;52.31;100080.59;5008474;28;20473;-76
2022/06/10 09:33:07;;;;;;;6.20;2.50;;;;;;;22.95;53.21;100085.56;5007804;28;20545;-76
2022/06/10 09:35:43;;;;;;;5.77;2.30;;;;;;;23.40;52.06;100083.69;4993493;28;20421;-76
2022/06/10 09:38:21;;;;;;;7.30;2.50;;;;;;;23.10;50.76;100085.88;5019732;28;20856;-76
2022/06/10 09:40:57;;;;;;;5.33;2.43;;;;;;;23.37;48.46;100079.41;5029341;28;21338;-76
2022/06/10 09:43:42;;;;;;;3.57;2.20;;;;;;;23.38;47.03;100081.13;5010672;28;20528;-77
2022/06/10 09:46:58;;;;;;;7.33;2.90;;;;;;;23.35;47.54;100084.19;5011386;28;20908;-77
2022/06/10 09:49:47;;;;;;;5.80;2.53;;;;;;;24.09;46.62;100077.28;5007144;28;20461;-75
2022/06/10 09:52:19;;;;;;;6.73;3.00;;;;;;;24.42;46.17;100071.03;5010969;28;20434;-76
2022/06/10 09:55:24;;;;;;;5.40;2.40;;;;;;;24.64;46.20;100072.34;5029281;28;20520;-77
2022/06/10 09:58:23;;;;;;;7.50;2.70;;;;;;;24.86;45.97;100068.09;5031283;28;20511;-77
2022/06/10 10:00:57;;;;;;;5.60;2.90;;;;;;;23.93;47.13;100080.81;5005404;28;20878;-77
2022/06/10 10:03:47;;;;;;;12.43;9.63;;;;;;;23.82;48.33;100066.50;4991793;28;20440;-77
2022/06/10 10:06:29;;;;;;;8.77;2.90;;;;;;;24.14;47.11;100076.78;5007578;28;20532;-77
2022/06/10 10:09:02;;;;;;;7.33;2.60;;;;;;;24.67;45.09;100067.38;4991241;28;20553;-77
2022/06/10 10:11:37;;;;;;;5.70;2.80;;;;;;;24.74;43.93;100065.66;5020824;28;20521;-77
2022/06/10 10:14:13;;;;;;;5.63;2.60;;;;;;;25.22;42.65;100076.06;5019078;28;20540;-77
2022/06/10 10:16:50;;;;;;;7.17;3.00;;;;;;;25.27;42.83;100060.72;5011280;28;20615;-76
2022/06/10 10:19:35;;;;;;;6.37;2.27;;;;;;;25.70;42.08;100060.47;5011600;28;20768;-77
2022/06/10 10:22:24;;;;;;;4.40;1.97;;;;;;;25.45;42.57;100052.25;5010912;28;20927;-77
2022/06/10 10:24:51;;;;;;;4.83;2.30;;;;;;;25.71;42.23;100057.56;5011686;28;20536;-77
2022/06/10 10:27:22;;;;;;;6.70;2.37;;;;;;;25.50;37.84;100055.34;5011261;28;20976;-77
2022/06/10 10:29:53;;;;;;;6.30;2.87;;;;;;;25.52;38.55;100046.91;5010425;28;20569;-77
2022/06/10 10:32:23;;;;;;;6.07;3.30;;;;;;;25.05;41.22;100040.19;5011961;28;20516;-77
2022/06/10 10:34:55;;;;;;;7.77;2.40;;;;;;;25.02;43.25;100042.44;5015185;28;21185;-78
2022/06/10 10:37:25;;;;;;;5.43;2.43;;;;;;;25.12;42.82;100041.25;5014687;28;20430;-77
2022/06/10 10:39:55;;;;;;;5.60;2.63;;;;;;;24.96;43.49;100042.09;5014462;28;20441;-78
2022/06/10 10:42:27;;;;;;;8.27;2.53;;;;;;;24.09;43.91;100046.19;5015221;28;21301;-77
2022/06/10 10:45:03;;;;;;;6.00;2.40;;;;;;;23.54;45.82;100039.16;5010063;28;20528;-77
2022/06/10 10:47:31;;;;;;;6.93;2.43;;;;;;;23.24;46.31;100035.84;4995331;28;20552;-77
2022/06/10 10:50:16;;;;;;;5.40;2.70;;;;;;;23.98;44.78;100038.22;4995370;28;20446;-76
2022/06/10 10:52:45;;;;;;;5.23;2.67;;;;;;;24.42;43.38;100038.00;5016579;28;20488;-76
2022/06/10 10:55:25;;;;;;;5.70;2.43;;;;;;;24.53;42.65;100029.47;5013563;28;20464;-76
2022/06/10 10:58:03;;;;;;;2.70;1.80;;;;;;;24.82;41.92;100033.66;5014184;28;20423;-78
2022/06/10 11:00:35;;;;;;;5.67;2.50;;;;;;;24.31;42.81;100029.06;5014413;28;20444;-76
2022/06/10 11:03:03;;;;;;;6.20;2.70;;;;;;;24.37;42.53;100023.91;5014656;28;20430;-77
2022/06/10 11:05:34;;;;;;;4.80;2.00;;;;;;;24.66;41.47;100028.97;5014521;28;20433;-76
2022/06/10 11:08:20;;;;;;;4.47;2.03;;;;;;;25.26;40.98;100036.97;5010753;28;20504;-77
2022/06/10 11:10:55;;;;;;;7.83;1.80;;;;;;;25.04;42.05;100032.13;5013602;28;20441;-77
2022/06/10 11:13:32;;;;;;;6.07;2.60;;;;;;;24.68;42.56;100026.91;5014673;28;20471;-76
2022/06/10 11:16:17;;;;;;;7.83;1.77;;;;;;;24.44;43.12;100030.44;5014319;28;20441;-77
2022/06/10 11:18:46;;;;;;;8.70;2.47;;;;;;;24.95;41.61;100036.75;5013868;28;20915;-77
2022/06/10 11:21:13;;;;;;;4.57;2.43;;;;;;;25.30;40.93;100027.28;5013977;28;20458;-77
2022/06/10 11:23:51;;;;;;;4.60;2.30;;;;;;;25.38;39.33;100023.69;5014753;28;20460;-77
2022/06/10 11:26:21;;;;;;;9.67;1.97;;;;;;;25.26;39.20;100031.44;5014258;28;20982;-77
2022/06/10 11:28:58;;;;;;;9.40;2.40;;;;;;;25.17;39.75;100022.28;5013869;28;21285;-77
2022/06/10 11:31:33;;;;;;;6.70;2.20;;;;;;;25.04;40.33;100027.47;5014532;28;20872;-75
2022/06/10 11:34:03;;;;;;;5.23;1.67;;;;;;;25.09;38.66;100025.03;5002597;28;20457;-76
2022/06/10 11:36:35;;;;;;;4.70;2.13;;;;;;;24.74;38.60;100020.75;4995230;28;20517;-77
2022/06/10 11:39:15;;;;;;;6.37;3.07;;;;;;;24.68;38.44;100027.78;4997913;28;20437;-77
2022/06/10 11:41:42;;;;;;;7.40;2.73;;;;;;;24.73;37.56;100025.38;5013910;28;20532;-76
2022/06/10 11:44:19;;;;;;;3.57;1.80;;;;;;;25.04;37.46;100016.44;5013287;28;20460;-77
2022/06/10 11:46:51;;;;;;;5.43;1.97;;;;;;;25.21;37.15;100017.31;5015205;28;21216;-77
2022/06/10 11:49:24;;;;;;;8.70;2.13;;;;;;;25.63;36.36;100007.09;5013315;28;20474;-77
2022/06/10 11:51:55;;;;;;;5.77;2.70;;;;;;;26.12;35.84;100001.41;5012833;28;20944;-77
2022/06/10 11:54:31;;;;;;;9.10;2.53;;;;;;;26.27;36.59;100002.34;5013928;28;20426;-78